Flight Track Log - Related Links

Times and Time Zones

All times are in EDT time to prevent confusion due to time zone crossing. See the FSR411 flight status page for this flight to view local times or setup timezone preferences in your user account.

Time Position Orientation Groundspeed Altitude Reporting Facility
EDT Latitude Longitude Course Direction KTS MPH feet Rate Location/Type
Wed 05:35:43 PM 41.9358 -71.4800 292° West 153 176 1,200  Level Boston Center
Wed 05:36:27 PM 41.9711 -71.4683 14° North 202 232 3,200 2,365 Climbing Boston Center
Wed 05:37:27 PM 41.9781 -71.5436 277° West 186 214 5,300 2,450 Climbing Boston Center
Wed 05:38:27 PM 41.9703 -71.6444 264° West 232 267 8,100 2,950 Climbing Boston Center
Wed 05:39:00 PM 42.0924 -72.3068 291° West  Level FlightAware Approximate
Wed 05:39:27 PM 41.9939 -71.7503 287° West 284 327 11,200  Level Boston Center
Wed 05:40:00 PM 42.1356 -72.4401 294° West  Level FlightAware Approximate
Wed 05:40:27 PM 42.0239 -71.8644 290° West 311 358 13,800  Level Boston Center
Wed 05:41:00 PM 42.1774 -72.5744 292° West  Level FlightAware Approximate
Wed 05:41:27 PM 42.0514 -71.9789 288° West 348 400 17,500  Level Boston Center
Wed 05:42:27 PM 42.0872 -72.1156 289° West 354 407 21,000 3,000 Climbing Boston Center
Wed 05:43:27 PM 42.1189 -72.2469 288° West 359 413 23,500 2,200 Climbing Boston Center
Wed 05:44:27 PM 42.1439 -72.3533 288° West 364 419 25,400 2,300 Climbing Boston Center
Wed 05:45:27 PM 42.1858 -72.5158 289° West 370 426 28,100 2,150 Climbing Boston Center
Wed 05:46:27 PM 42.2169 -72.6503 287° West 375 432 29,700 1,700 Climbing Boston Center
Wed 05:47:27 PM 42.2497 -72.7878 288° West 380 437 31,500 1,750 Climbing Boston Center
Wed 05:48:27 PM 42.2722 -72.9256 282° West 380 437 33,200 1,250 Climbing Boston Center
Wed 05:49:27 PM 42.2986 -73.0744 284° West 387 445 34,000 400 Climbing Boston Center
Wed 05:50:27 PM 42.3228 -73.2208 283° West 393 452 34,000  Level Boston Center
Wed 05:51:27 PM 42.3486 -73.3672 283° West 391 450 34,000 250 Level Boston Center
Wed 05:52:27 PM 42.3725 -73.5081 283° West 396 456 34,500 1,050 Climbing Boston Center
Wed 05:53:27 PM 42.3939 -73.6433 282° West 385 443 36,100 1,350 Climbing Boston Center
Wed 05:54:27 PM 42.4153 -73.7814 282° West 380 437 37,200 1,000 Climbing Boston Center
Wed 05:55:27 PM 42.4386 -73.9228 283° West 380 437 38,100 900 Climbing Boston Center
Wed 05:56:27 PM 42.4617 -74.0611 283° West 375 432 39,000 900 Climbing Boston Center
Wed 05:57:27 PM 42.4825 -74.2025 281° West 380 437 39,900 950 Climbing Boston Center
Wed 05:58:27 PM 42.5053 -74.3411 283° West 380 437 40,900 850 Climbing Boston Center
Wed 05:59:27 PM 42.5219 -74.4628 281° West 380 437 41,600 650 Climbing Boston Center
Wed 06:00:27 PM 42.5425 -74.5986 282° West 374 430 42,200 600 Climbing Boston Center
Wed 06:01:27 PM 42.5647 -74.7347 283° West 374 430 42,800 400 Climbing Boston Center
Wed 06:02:27 PM 42.5847 -74.8736 281° West 374 430 43,000 100 Climbing Boston Center
Wed 06:03:27 PM 42.6047 -75.0156 281° West 374 430 43,000  Level Boston Center
Wed 06:04:27 PM 42.5992 -75.1650 267° West 386 444 43,000  Level Boston Center
Wed 06:05:27 PM 42.5831 -75.3108 262° West 391 450 43,000  Level Boston Center
Wed 06:06:27 PM 42.5728 -75.4597 265° West 397 457 43,000  Level Boston Center
Wed 06:07:27 PM 42.5586 -75.6031 262° West 397 457 43,000  Level Boston Center
Wed 06:08:27 PM 42.5442 -75.7458 262° West 402 463 43,000  Level Boston Center
Wed 06:09:27 PM 42.5314 -75.8889 263° West 396 456 43,000  Level Boston Center
Wed 06:10:27 PM 42.5186 -76.0347 263° West 391 450 43,000  Level Boston Center
Wed 06:11:27 PM 42.5056 -76.1806 263° West 391 450 43,000  Level Boston Center
Wed 06:16:20 PM 42.4347 -76.9003 263° West 405 466 43,000  Level Cleveland Center
Wed 06:17:20 PM 42.4208 -77.0531 263° West 410 472 43,000  Level Cleveland Center
Wed 06:18:20 PM 42.4044 -77.2031 262° West 410 472 43,000  Level Cleveland Center
Wed 06:19:20 PM 42.3878 -77.3531 261° West 410 472 43,000  Level Cleveland Center
Wed 06:20:20 PM 42.3711 -77.5028 261° West 410 472 43,000  Level Cleveland Center
Wed 06:21:20 PM 42.3564 -77.6525 262° West 410 472 43,000  Level Cleveland Center
Wed 06:22:20 PM 42.3411 -77.7992 262° West 410 472 43,000  Level Cleveland Center
Wed 06:23:20 PM 42.3258 -77.9458 262° West 410 472 43,000  Level Cleveland Center
Wed 06:24:20 PM 42.3083 -78.0900 261° West 405 466 43,000  Level Cleveland Center
Wed 06:25:20 PM 42.2925 -78.2367 262° West 405 466 43,000  Level Cleveland Center
Wed 06:26:20 PM 42.2767 -78.3858 262° West 405 466 43,000  Level Cleveland Center
Wed 06:27:20 PM 42.2608 -78.5350 262° West 405 466 43,000  Level Cleveland Center
Wed 06:28:20 PM 42.2422 -78.6789 260° West 405 466 43,000  Level Cleveland Center
Wed 06:29:20 PM 42.2242 -78.8419 262° West 407 468 43,000  Level Cleveland Center
Wed 06:30:20 PM 42.2053 -78.9769 259° West 407 468 43,000  Level Cleveland Center
Wed 06:31:20 PM 42.1906 -79.1231 262° West 407 468 43,000  Level Cleveland Center
Wed 06:32:20 PM 42.1611 -79.2750 255° West 413 475 43,000  Level Cleveland Center
Wed 06:33:20 PM 42.1314 -79.4242 255° West 413 475 43,000  Level Cleveland Center
Wed 06:34:20 PM 42.1036 -79.5700 256° West 413 475 43,000  Level Cleveland Center
Wed 06:35:20 PM 42.0756 -79.7161 256° West 413 475 43,000  Level Cleveland Center
Wed 06:36:20 PM 42.0453 -79.8647 255° West 413 475 43,000  Level Cleveland Center
Wed 06:37:20 PM 42.0169 -80.0103 255° West 413 475 43,000  Level Cleveland Center
Wed 06:38:20 PM 41.9883 -80.1558 255° West 413 475 43,000  Level Cleveland Center
Wed 06:39:19 PM 41.9597 -80.3011 255° West 413 475 43,000  Level Cleveland Center
Wed 06:40:20 PM 41.9267 -80.4631 255° West 408 470 43,000  Level Cleveland Center
Wed 06:41:20 PM 41.8975 -80.6111 255° West 408 470 43,000  Level Cleveland Center
Wed 06:42:20 PM 41.8681 -80.7561 255° West 413 475 43,000  Level Cleveland Center
Wed 06:43:20 PM 41.8386 -80.9036 255° West 413 475 43,000  Level Cleveland Center
Wed 06:44:20 PM 41.8089 -81.0511 255° West 413 475 43,000  Level Cleveland Center
Wed 06:45:19 PM 41.7750 -81.1956 253° West 413 475 43,000  Level Cleveland Center
Wed 06:46:20 PM 41.7447 -81.3483 255° West 418 481 43,000  Level Cleveland Center
Wed 06:47:20 PM 41.7144 -81.4983 255° West 418 481 43,000  Level Cleveland Center
Wed 06:48:20 PM 41.6819 -81.6453 254° West 418 481 43,000  Level Cleveland Center
Wed 06:49:20 PM 41.6492 -81.7975 254° West 418 481 43,000  Level Cleveland Center
Wed 06:50:19 PM 41.6183 -81.9497 255° West 418 481 43,000  Level Cleveland Center
Wed 06:51:20 PM 41.5850 -82.0989 253° West 418 481 43,000  Level Cleveland Center
Wed 06:52:19 PM 41.5683 -82.2483 262° West 411 473 43,000  Level Cleveland Center
Wed 06:53:20 PM 41.5558 -82.4006 264° West 411 473 43,000  Level Cleveland Center
Wed 06:54:19 PM 41.5447 -82.5531 264° West 406 467 43,000  Level Cleveland Center
Wed 06:55:20 PM 41.5383 -82.6886 266° West 406 467 43,000  Level Cleveland Center
Wed 06:56:19 PM 41.5311 -82.8383 266° West 406 467 43,000  Level Cleveland Center
Wed 06:57:19 PM 41.5322 -82.9881 271° West 401 461 43,000  Level Cleveland Center
Wed 06:58:19 PM 41.5333 -83.1408 271° West 406 467 43,000  Level Cleveland Center
Wed 06:59:19 PM 41.5319 -83.2906 269° West 406 467 43,000  Level Cleveland Center
Wed 07:00:20 PM 41.5344 -83.4403 271° West 406 467 43,000  Level Cleveland Center
Wed 07:01:20 PM 41.5183 -83.5867 262° West 401 461 43,000  Level Cleveland Center
Wed 07:02:19 PM 41.4769 -83.7289 249° West 401 461 43,000  Level Cleveland Center
Wed 07:03:20 PM 41.4375 -83.8711 250° West 407 468 43,000  Level Cleveland Center
Wed 07:04:20 PM 41.3958 -84.0128 249° West 413 475 43,000  Level Cleveland Center
Wed 07:05:54 PM 41.3333 -84.2319 249° West 414 476 43,000  Level Chicago Center
Wed 07:06:55 PM 41.2917 -84.3728 249° West 410 472 43,000  Level Chicago Center
Wed 07:07:56 PM 41.2494 -84.5125 248° West 407 468 43,000  Level Chicago Center
Wed 07:08:58 PM 41.2072 -84.6522 248° West 406 467 43,000  Level Chicago Center
Wed 07:09:59 PM 41.1569 -84.8206 248° West 410 472 43,000 -246 Level Chicago Center
Wed 07:11:00 PM 41.1128 -84.9622 248° West 413 475 42,500 -787 Descending Chicago Center
Wed 07:12:01 PM 41.0700 -85.1039 248° West 414 476 41,400 -1,220 Descending Chicago Center
Wed 07:13:03 PM 41.0256 -85.2436 247° West 411 473 40,000 -1,902 Descending Chicago Center
Wed 07:14:04 PM 40.9831 -85.3872 249° West 415 478 37,500 -2,164 Descending Chicago Center
Wed 07:15:05 PM 40.9406 -85.5206 247° West 397 457 35,600 -1,869 Descending Chicago Center
Wed 07:16:06 PM 40.8908 -85.6433 242° Southwest 385 443 33,700 -1,659 Descending Chicago Center
Wed 07:17:08 PM 40.8283 -85.7714 237° Southwest 413 475 32,200 -1,512 Descending Chicago Center
Wed 07:18:09 PM 40.7661 -85.9000 237° Southwest 417 480 30,600 -1,525 Descending Chicago Center
Wed 07:19:10 PM 40.7153 -86.0381 244° Southwest 416 479 29,100 -1,770 Descending Chicago Center
Wed 07:20:11 PM 40.6717 -86.1978 250° West 425 489 27,000 -1,630 Descending Chicago Center
Wed 07:22:14 PM 40.5892 -86.4775 249° West 409 471 24,100 -978 Descending Chicago Center
Wed 07:23:15 PM 40.5481 -86.6150 249° West 407 468 24,000 -49 Descending Chicago Center
Wed 07:24:16 PM 40.5072 -86.7525 249° West 407 468 24,000 -885 Level Chicago Center
Wed 07:25:17 PM 40.4589 -86.9133 248° West 399 459 22,200 -1,869 Descending Chicago Center
Wed 07:26:18 PM 40.4203 -87.0414 248° West 384 442 20,200 -1,967 Descending Chicago Center
Wed 07:27:19 PM 40.3831 -87.1672 249° West 375 432 18,200 -2,016 Descending Chicago Center
Wed 07:28:20 PM 40.3456 -87.2908 248° West 368 423 16,100 -1,574 Descending Chicago Center
Wed 07:29:21 PM 40.3089 -87.4086 248° West 354 407 15,000 -934 Descending Chicago Center
Wed 07:30:22 PM 40.2739 -87.5258 249° West 338 389 14,200 -738 Descending Chicago Center
Wed 07:31:23 PM 40.2400 -87.6375 248° West 333 383 13,500 -829 Descending Chicago Center
Wed 07:32:25 PM 40.2064 -87.7436 248° West 317 365 12,500 -1,902 Descending Chicago Center
Wed 07:33:26 PM 40.1794 -87.8289 248° West 272 313 9,600 -3,393 Descending Chicago Center
Wed 07:34:27 PM 40.1547 -87.9117 249° West 251 289 5,600 -2,951 Descending Chicago Center
Wed 07:35:28 PM 40.1283 -88.0019 249° West 247 284 3,600 -1,967 Descending Chicago Center
Wed 07:37:00 PM 40.0556 -88.1834 246° West  Level FlightAware Approximate
Wed 07:44:00 PM 40.0333 -88.2667 252° West  Level FlightAware Approximate
Wed 07:45:00 PM 40.0388 -88.2778 252° West  Level Estimated
Wed 07:46:00 PM 40.0388 -88.2778 252° West  Level Estimated
Wed 07:47:00 PM 40.0388 -88.2778 252° West  Level Estimated
Wed 07:48:00 PM 40.0388 -88.2778 252° West  Level Estimated

Login

Don't have an account? Register now (free) for customized features, flight alerts, and more!